createdAt,value
2018-04-25T00:01:23.919Z,24.40
2018-04-25T00:03:52.171Z,24.40
2018-04-25T00:06:19.628Z,24.40
2018-04-25T00:08:47.122Z,24.40
2018-04-25T00:11:14.668Z,24.40
2018-04-25T00:13:42.929Z,24.40
2018-04-25T00:16:10.505Z,24.40
2018-04-25T00:18:38.789Z,24.40
2018-04-25T00:21:06.297Z,24.40
2018-04-25T00:23:33.815Z,24.40
2018-04-25T00:26:01.317Z,24.30
2018-04-25T00:28:28.842Z,24.30
2018-04-25T00:30:56.375Z,24.30
2018-04-25T00:33:24.610Z,24.40
2018-04-25T00:35:52.192Z,24.30
2018-04-25T00:38:20.440Z,24.40
2018-04-25T00:40:48.047Z,24.30
2018-04-25T00:43:16.303Z,24.40
2018-04-25T00:45:43.810Z,24.40
2018-04-25T00:48:11.285Z,24.30
2018-04-25T00:50:38.782Z,24.40
2018-04-25T00:53:07.027Z,24.40
2018-04-25T00:55:34.505Z,24.40
2018-04-25T00:58:02.006Z,24.40
2018-04-25T01:00:29.500Z,24.40
2018-04-25T01:02:57.047Z,24.40
2018-04-25T01:05:24.611Z,24.40
2018-04-25T01:07:52.117Z,24.30
2018-04-25T01:10:20.421Z,24.30
2018-04-25T01:12:47.907Z,24.40
2018-04-25T01:15:15.431Z,24.40
2018-04-25T01:17:42.975Z,24.30
2018-04-25T01:20:11.385Z,24.30
2018-04-25T01:22:38.921Z,24.30
2018-04-25T01:25:15.207Z,24.40
2018-04-25T01:27:42.729Z,24.40
2018-04-25T01:30:11.013Z,24.30
2018-04-25T01:32:38.485Z,24.40
2018-04-25T01:35:06.027Z,24.40
2018-04-25T01:37:43.630Z,24.40
2018-04-25T01:40:11.137Z,24.30
2018-04-25T01:42:54.421Z,24.40
2018-04-25T01:45:27.908Z,24.30
2018-04-25T01:47:58.949Z,24.40
2018-04-25T01:50:32.225Z,24.30
2018-04-25T01:53:11.719Z,24.30
2018-04-25T01:55:51.321Z,24.30
2018-04-25T01:58:31.465Z,24.30
2018-04-25T02:01:11.659Z,24.40
2018-04-25T02:03:53.721Z,24.30
2018-04-25T02:06:21.983Z,24.30
2018-04-25T02:08:49.461Z,24.30
2018-04-25T02:11:17.709Z,24.30
2018-04-25T02:13:45.263Z,24.30
2018-04-25T02:16:12.727Z,24.40
2018-04-25T02:18:40.223Z,24.30
2018-04-25T02:21:07.702Z,24.30
2018-04-25T02:23:35.357Z,24.30
2018-04-25T02:26:02.886Z,24.30
2018-04-25T02:28:31.149Z,24.30
2018-04-25T02:30:58.665Z,24.30
2018-04-25T02:33:27.015Z,24.40
2018-04-25T02:35:54.578Z,24.30
2018-04-25T02:38:22.089Z,24.30
2018-04-25T02:40:49.599Z,24.30
2018-04-25T02:43:17.079Z,24.30
2018-04-25T02:45:44.567Z,24.30
2018-04-25T02:48:12.067Z,24.30
2018-04-25T02:50:39.552Z,24.30
2018-04-25T02:53:07.082Z,24.30
2018-04-25T02:55:34.579Z,24.30
2018-04-25T02:58:02.178Z,24.30
2018-04-25T03:00:30.456Z,24.30
2018-04-25T03:02:58.858Z,24.30
2018-04-25T03:05:26.416Z,24.30
2018-04-25T03:07:55.434Z,24.30
2018-04-25T03:10:22.926Z,24.30
2018-04-25T03:12:50.428Z,24.40
2018-04-25T03:15:17.899Z,24.30
2018-04-25T03:17:45.416Z,24.30
2018-04-25T03:20:12.924Z,24.30
2018-04-25T03:22:40.519Z,24.30
2018-04-25T03:25:07.957Z,24.30
2018-04-25T03:27:35.435Z,24.40
2018-04-25T03:30:02.919Z,24.30
2018-04-25T03:32:31.177Z,24.40
2018-04-25T03:34:58.676Z,24.30
2018-04-25T03:37:26.204Z,24.40
2018-04-25T03:39:54.484Z,24.40
2018-04-25T03:42:22.764Z,24.30
2018-04-25T03:44:50.300Z,24.30
2018-04-25T03:47:17.900Z,24.30
2018-04-25T03:49:45.396Z,24.30
2018-04-25T03:52:12.886Z,24.30
2018-04-25T03:54:40.369Z,24.40
2018-04-25T03:57:07.862Z,24.40
2018-04-25T03:59:35.380Z,24.30
2018-04-25T04:02:03.618Z,24.30
2018-04-25T04:04:31.093Z,24.30
2018-04-25T04:06:58.632Z,24.30
2018-04-25T04:09:26.154Z,24.40
2018-04-25T04:11:53.626Z,24.30
2018-04-25T04:14:21.122Z,24.30
2018-04-25T04:16:48.618Z,24.30
2018-04-25T04:19:16.854Z,24.30
2018-04-25T04:21:44.436Z,24.30
2018-04-25T04:24:12.692Z,24.30
2018-04-25T04:26:40.213Z,24.30
2018-04-25T04:29:07.709Z,24.30
2018-04-25T04:31:35.286Z,24.30
2018-04-25T04:34:03.563Z,24.30
2018-04-25T04:36:31.936Z,24.30
2018-04-25T04:39:00.235Z,24.30
2018-04-25T04:41:27.735Z,24.30
2018-04-25T04:43:55.224Z,24.30
2018-04-25T04:46:23.468Z,24.30
2018-04-25T04:48:51.062Z,24.30
2018-04-25T04:51:19.391Z,24.30
2018-04-25T04:53:46.914Z,24.30
2018-04-25T04:56:14.428Z,24.30
2018-04-25T04:58:41.954Z,24.30
2018-04-25T05:01:10.301Z,24.30
2018-04-25T05:03:37.790Z,24.30
2018-04-25T05:06:05.299Z,24.30
2018-04-25T05:08:32.920Z,24.30
2018-04-25T05:11:00.428Z,24.30
2018-04-25T05:13:28.687Z,24.30
2018-04-25T05:15:56.190Z,24.30
2018-04-25T05:18:23.693Z,24.30
2018-04-25T05:20:51.233Z,24.30
2018-04-25T05:23:18.727Z,24.30
2018-04-25T05:25:46.230Z,24.30
2018-04-25T05:28:13.704Z,24.30
2018-04-25T05:30:41.191Z,24.30
2018-04-25T05:33:08.714Z,24.30
2018-04-25T05:35:36.215Z,24.30
2018-04-25T05:38:03.827Z,24.30
2018-04-25T05:40:31.229Z,24.30
2018-04-25T05:42:58.717Z,24.30
2018-04-25T05:45:26.986Z,24.30
2018-04-25T05:47:55.255Z,24.30
2018-04-25T05:50:23.504Z,24.30
2018-04-25T05:52:51.006Z,24.30
2018-04-25T05:55:18.580Z,24.30
2018-04-25T05:57:47.552Z,24.30
2018-04-25T06:00:16.504Z,24.30
2018-04-25T06:02:43.996Z,24.40
2018-04-25T06:05:12.234Z,24.30
2018-04-25T06:07:39.812Z,24.30
2018-04-25T06:10:07.501Z,24.30
2018-04-25T06:12:35.920Z,24.30
2018-04-25T06:15:04.121Z,24.30
2018-04-25T06:17:33.737Z,24.30
2018-04-25T06:20:01.257Z,24.30
2018-04-25T06:22:28.717Z,24.30
2018-04-25T06:24:56.333Z,24.30
2018-04-25T06:27:24.637Z,24.20
2018-04-25T06:29:52.107Z,24.20
2018-04-25T06:32:19.609Z,24.20
2018-04-25T06:34:47.865Z,24.20
2018-04-25T06:37:15.413Z,24.20
2018-04-25T06:39:42.944Z,24.20
2018-04-25T06:42:10.585Z,24.20
2018-04-25T06:44:38.170Z,24.20
2018-04-25T06:47:06.373Z,24.30
2018-04-25T06:49:33.894Z,24.20
2018-04-25T06:52:01.363Z,24.20
2018-04-25T06:54:28.930Z,24.20
2018-04-25T06:56:56.395Z,24.30
2018-04-25T06:59:23.897Z,24.20
2018-04-25T07:01:52.126Z,24.20
2018-04-25T07:04:19.740Z,24.20
2018-04-25T07:06:47.972Z,24.20
2018-04-25T07:09:15.508Z,24.20
2018-04-25T07:11:43.043Z,24.20
2018-04-25T07:14:10.603Z,24.30
2018-04-25T07:16:38.128Z,24.20
2018-04-25T07:19:05.713Z,24.20
2018-04-25T07:21:34.028Z,24.20
2018-04-25T07:24:01.497Z,24.20
2018-04-25T07:26:28.971Z,24.20
2018-04-25T07:28:56.599Z,24.20
2018-04-25T07:31:24.120Z,24.20
2018-04-25T07:33:52.369Z,24.20
2018-04-25T07:36:19.865Z,24.20
2018-04-25T07:38:47.417Z,24.20
2018-04-25T07:41:15.675Z,24.20
2018-04-25T07:43:43.269Z,24.20
2018-04-25T07:46:10.766Z,24.30
2018-04-25T07:48:38.269Z,24.30
2018-04-25T07:51:06.526Z,24.20
2018-04-25T07:53:34.819Z,24.20
2018-04-25T07:56:03.081Z,24.20
2018-04-25T07:58:30.581Z,24.20
2018-04-25T08:00:58.145Z,24.20
2018-04-25T08:03:25.669Z,24.20
2018-04-25T08:05:54.034Z,24.20
2018-04-25T08:08:21.527Z,24.20
2018-04-25T08:10:49.028Z,24.20
2018-04-25T08:13:29.410Z,24.20
2018-04-25T08:16:08.875Z,24.20
2018-04-25T08:18:48.133Z,24.20
2018-04-25T08:21:27.359Z,24.20
2018-04-25T08:23:54.859Z,24.20
2018-04-25T08:26:22.375Z,24.20
2018-04-25T08:28:49.919Z,24.20
2018-04-25T08:31:17.398Z,24.20
2018-04-25T08:33:44.889Z,24.20
2018-04-25T08:36:12.372Z,24.20
2018-04-25T08:38:40.634Z,24.20
2018-04-25T08:41:08.157Z,24.20
2018-04-25T08:43:35.680Z,24.20
2018-04-25T08:46:03.208Z,24.20
2018-04-25T08:48:30.722Z,24.20
2018-04-25T08:50:58.252Z,24.20
2018-04-25T08:53:26.481Z,24.20
2018-04-25T08:55:54.006Z,24.20
2018-04-25T08:58:21.500Z,24.20
2018-04-25T09:00:49.025Z,24.20
2018-04-25T09:03:16.536Z,24.20
2018-04-25T09:05:44.100Z,24.20
2018-04-25T09:08:11.599Z,24.20
2018-04-25T09:10:39.086Z,24.20
2018-04-25T09:13:06.628Z,24.30
2018-04-25T09:15:34.199Z,24.20
2018-04-25T09:18:01.713Z,24.20
2018-04-25T09:20:30.116Z,24.20
2018-04-25T09:22:57.607Z,24.20
2018-04-25T09:25:25.116Z,24.20
2018-04-25T09:27:53.403Z,24.20
2018-04-25T09:30:20.897Z,24.20
2018-04-25T09:32:48.386Z,24.20
2018-04-25T09:35:17.055Z,24.20
2018-04-25T09:37:46.031Z,24.20
2018-04-25T09:40:13.535Z,24.20
2018-04-25T09:42:44.485Z,24.20
2018-04-25T09:45:12.051Z,24.20
2018-04-25T09:47:39.610Z,24.20
2018-04-25T09:50:07.077Z,24.20
2018-04-25T09:52:34.611Z,24.20
2018-04-25T09:55:02.110Z,24.20
2018-04-25T09:57:29.667Z,24.20
2018-04-25T09:59:57.934Z,24.20
2018-04-25T10:02:31.248Z,24.20
2018-04-25T10:04:58.743Z,24.30
2018-04-25T10:07:27.031Z,24.30
2018-04-25T10:09:55.310Z,24.30
2018-04-25T10:12:22.841Z,24.30
2018-04-25T10:14:50.346Z,24.30
2018-04-25T10:17:17.842Z,24.30
2018-04-25T10:19:45.425Z,24.30
2018-04-25T10:22:13.744Z,24.30
2018-04-25T10:24:41.235Z,24.30
2018-04-25T10:27:08.749Z,24.30
2018-04-25T10:29:36.240Z,24.40
2018-04-25T10:32:03.800Z,24.30
2018-04-25T10:34:32.105Z,24.40
2018-04-25T10:37:00.342Z,24.30
2018-04-25T10:39:27.829Z,24.30
2018-04-25T10:41:56.834Z,24.30
2018-04-25T10:44:24.370Z,24.30
2018-04-25T10:46:51.880Z,24.30
2018-04-25T10:49:19.363Z,24.30
2018-04-25T10:51:46.847Z,24.30
2018-04-25T10:54:14.323Z,24.30
2018-04-25T10:56:42.032Z,24.30
2018-04-25T10:59:09.509Z,24.30
2018-04-25T11:01:37.016Z,24.30
2018-04-25T11:04:05.247Z,24.30
2018-04-25T11:06:32.762Z,24.30
2018-04-25T11:09:00.245Z,24.30
2018-04-25T11:11:27.710Z,24.30
2018-04-25T11:13:55.327Z,24.30
2018-04-25T11:16:23.581Z,24.30
2018-04-25T11:18:51.071Z,24.30
2018-04-25T11:21:18.551Z,24.30
2018-04-25T11:23:46.104Z,24.20
2018-04-25T11:26:13.578Z,24.30
2018-04-25T11:28:41.078Z,24.20
2018-04-25T11:31:09.361Z,24.20
2018-04-25T11:33:37.658Z,24.20
2018-04-25T11:36:07.696Z,24.20
2018-04-25T11:38:35.184Z,24.20
2018-04-25T11:41:02.714Z,24.20
2018-04-25T11:43:30.202Z,24.30
2018-04-25T11:45:57.692Z,24.30
2018-04-25T11:48:25.965Z,24.20
2018-04-25T11:50:54.253Z,24.20
2018-04-25T11:53:22.706Z,24.30
2018-04-25T11:55:50.182Z,24.30
2018-04-25T11:58:18.569Z,24.30
2018-04-25T12:00:46.056Z,24.20
2018-04-25T12:03:13.540Z,24.20
2018-04-25T12:05:41.019Z,24.20
2018-04-25T12:08:09.271Z,24.20
2018-04-25T12:10:37.658Z,24.20
2018-04-25T12:13:06.811Z,24.20
2018-04-25T12:15:34.348Z,24.20
2018-04-25T12:18:02.625Z,24.20
2018-04-25T12:20:30.998Z,24.20
2018-04-25T12:22:59.364Z,24.20
2018-04-25T12:25:27.704Z,24.20
2018-04-25T12:27:55.198Z,24.20
2018-04-25T12:30:23.468Z,24.20
2018-04-25T12:32:50.974Z,24.20
2018-04-25T12:35:18.483Z,24.20
2018-04-25T12:37:45.979Z,24.20
2018-04-25T12:40:13.507Z,24.20
2018-04-25T12:42:41.754Z,24.20
2018-04-25T12:45:09.342Z,24.20
2018-04-25T12:47:36.782Z,24.20
2018-04-25T12:50:04.298Z,24.20
2018-04-25T12:52:31.804Z,24.20
2018-04-25T12:54:59.294Z,24.30
2018-04-25T12:57:27.567Z,24.20
2018-04-25T12:59:55.855Z,24.20
2018-04-25T13:02:23.328Z,24.20
2018-04-25T13:04:50.850Z,24.20
2018-04-25T13:07:19.107Z,24.20
2018-04-25T13:09:46.636Z,24.20
2018-04-25T13:12:14.116Z,24.20
2018-04-25T13:14:41.614Z,24.20
2018-04-25T13:17:09.117Z,24.20
2018-04-25T13:19:36.586Z,24.20
2018-04-25T13:22:04.121Z,24.20
2018-04-25T13:24:31.619Z,24.20
2018-04-25T13:26:59.112Z,24.20
2018-04-25T13:29:26.586Z,24.10
2018-04-25T13:31:54.099Z,24.10
2018-04-25T13:34:22.356Z,24.20
2018-04-25T13:36:49.861Z,24.10
2018-04-25T13:39:17.367Z,24.20
2018-04-25T13:41:44.859Z,24.20
2018-04-25T13:44:13.129Z,24.20
2018-04-25T13:46:41.363Z,24.20
2018-04-25T13:49:08.864Z,24.20
2018-04-25T13:51:37.118Z,24.20
2018-04-25T13:54:06.167Z,24.20
2018-04-25T13:56:33.651Z,24.20
2018-04-25T13:59:01.123Z,24.20
2018-04-25T14:01:28.624Z,24.20
2018-04-25T14:03:56.199Z,24.20
2018-04-25T14:06:23.705Z,24.20
2018-04-25T14:08:51.196Z,24.20
2018-04-25T14:11:19.459Z,24.20
2018-04-25T14:13:47.700Z,24.20
2018-04-25T14:16:15.309Z,24.20
2018-04-25T14:18:42.799Z,24.10
2018-04-25T14:21:10.285Z,24.10
2018-04-25T14:23:37.798Z,24.10
2018-04-25T14:26:05.305Z,24.10
2018-04-25T14:28:32.814Z,24.10
2018-04-25T14:31:00.325Z,24.10
2018-04-25T14:33:27.815Z,24.10
2018-04-25T14:35:55.389Z,24.10
2018-04-25T14:38:22.865Z,24.00
2018-04-25T14:40:50.368Z,24.00
2018-04-25T14:43:17.869Z,24.00
2018-04-25T14:45:45.388Z,24.00
2018-04-25T14:48:13.667Z,24.00
2018-04-25T14:50:41.947Z,24.00
2018-04-25T14:53:10.211Z,24.00
2018-04-25T14:55:37.839Z,24.00
2018-04-25T14:58:05.344Z,24.00
2018-04-25T15:00:33.639Z,24.00
2018-04-25T15:03:01.157Z,24.00
2018-04-25T15:05:28.749Z,24.00
2018-04-25T15:07:57.002Z,24.00
2018-04-25T15:10:24.526Z,24.00
2018-04-25T15:12:52.128Z,24.00
2018-04-25T15:15:20.380Z,24.00
2018-04-25T15:17:47.864Z,24.00
2018-04-25T15:20:16.175Z,24.00
2018-04-25T15:22:43.666Z,24.00
2018-04-25T15:25:11.149Z,24.00
2018-04-25T15:27:38.645Z,24.10
2018-04-25T15:30:06.160Z,24.10
2018-04-25T15:32:33.622Z,24.10
2018-04-25T15:35:01.872Z,24.10
2018-04-25T15:37:29.353Z,24.10
2018-04-25T15:39:56.947Z,24.10
2018-04-25T15:42:24.491Z,24.20
2018-04-25T15:44:52.020Z,24.10
2018-04-25T15:47:20.325Z,24.20
2018-04-25T15:49:48.571Z,24.20
2018-04-25T15:52:16.107Z,24.20
2018-04-25T15:54:43.637Z,24.20
2018-04-25T15:57:11.115Z,24.20
2018-04-25T15:59:38.625Z,24.20
2018-04-25T16:02:06.900Z,24.20
2018-04-25T16:04:36.164Z,24.20
2018-04-25T16:07:03.636Z,24.30
2018-04-25T16:09:31.222Z,24.30
2018-04-25T16:11:59.528Z,24.30
2018-04-25T16:14:27.030Z,24.30
2018-04-25T16:16:54.525Z,24.40
2018-04-25T16:19:22.015Z,24.40
2018-04-25T16:21:49.561Z,24.50
2018-04-25T16:24:17.074Z,24.60
2018-04-25T16:26:44.572Z,24.90
2018-04-25T16:29:12.062Z,25.10
2018-04-25T16:31:39.589Z,25.20
2018-04-25T16:34:07.107Z,25.10
2018-04-25T16:36:34.619Z,25.00
2018-04-25T16:39:02.155Z,25.00
2018-04-25T16:41:29.663Z,24.90
2018-04-25T16:43:57.202Z,24.80
2018-04-25T16:46:24.674Z,24.70
2018-04-25T16:48:52.179Z,24.70
2018-04-25T16:51:20.440Z,24.50
2018-04-25T16:53:48.702Z,24.60
2018-04-25T16:56:16.202Z,24.50
2018-04-25T16:58:43.728Z,24.50
2018-04-25T17:01:11.301Z,24.50
2018-04-25T17:03:39.918Z,24.50
2018-04-25T17:06:07.454Z,24.50
2018-04-25T17:08:35.031Z,24.60
2018-04-25T17:11:02.595Z,24.60
2018-04-25T17:13:30.082Z,24.60
2018-04-25T17:15:57.889Z,24.60
2018-04-25T17:18:26.155Z,24.60
2018-04-25T17:20:54.441Z,24.60
2018-04-25T17:23:22.759Z,24.50
2018-04-25T17:25:50.253Z,24.50
2018-04-25T17:28:17.769Z,24.50
2018-04-25T17:30:45.275Z,24.50
2018-04-25T17:33:13.595Z,24.20
2018-04-25T17:35:41.115Z,24.20
2018-04-25T17:38:09.377Z,24.00
2018-04-25T17:40:36.904Z,24.00
2018-04-25T17:43:04.395Z,23.90
2018-04-25T17:47:52.667Z,23.90
2018-04-25T17:50:21.102Z,24.00
2018-04-25T17:52:48.718Z,24.00
2018-04-25T17:55:17.110Z,24.10
2018-04-25T17:57:44.625Z,24.00
2018-04-25T18:00:12.142Z,24.10
2018-04-25T18:02:39.631Z,24.10
2018-04-25T18:05:07.138Z,24.10
2018-04-25T18:07:34.602Z,24.20
2018-04-25T18:10:02.108Z,24.10
2018-04-25T18:12:29.626Z,24.10
2018-04-25T18:14:57.182Z,24.20
2018-04-25T18:17:24.685Z,24.10
2018-04-25T18:19:52.199Z,24.10
2018-04-25T18:22:19.762Z,24.10
2018-04-25T18:24:48.043Z,24.10
2018-04-25T18:27:15.565Z,24.10
2018-04-25T18:29:43.806Z,24.10
2018-04-25T18:32:11.339Z,24.10
2018-04-25T18:34:38.854Z,24.10
2018-04-25T18:37:07.233Z,24.20
2018-04-25T18:39:35.490Z,24.20
2018-04-25T18:42:02.974Z,24.20
2018-04-25T18:44:31.237Z,24.20
2018-04-25T18:46:59.531Z,24.20
2018-04-25T18:49:27.871Z,24.20
2018-04-25T18:51:55.381Z,24.20
2018-04-25T18:54:22.901Z,24.20
2018-04-25T18:56:50.388Z,24.20
2018-04-25T18:59:18.676Z,24.20
2018-04-25T19:01:46.178Z,24.20
2018-04-25T19:04:13.656Z,24.20
2018-04-25T19:06:41.212Z,24.20
2018-04-25T19:09:08.713Z,24.20
2018-04-25T19:11:36.179Z,24.20
2018-04-25T19:14:03.709Z,24.20
2018-04-25T19:16:31.998Z,24.20
2018-04-25T19:18:59.485Z,24.20
2018-04-25T19:21:26.995Z,24.20
2018-04-25T19:23:55.241Z,24.20
2018-04-25T19:26:22.739Z,24.20
2018-04-25T19:28:51.003Z,24.10
2018-04-25T19:31:18.526Z,24.20
2018-04-25T19:33:46.130Z,24.10
2018-04-25T19:36:14.377Z,24.10
2018-04-25T19:38:41.888Z,24.10
2018-04-25T19:41:09.364Z,24.20
2018-04-25T19:43:36.853Z,24.20
2018-04-25T19:46:04.384Z,24.20
2018-04-25T19:48:31.871Z,24.10
2018-04-25T19:50:59.372Z,24.10
2018-04-25T19:53:26.868Z,24.10
2018-04-25T19:55:54.453Z,24.10
2018-04-25T19:58:21.930Z,24.10
2018-04-25T20:00:50.301Z,24.10
2018-04-25T20:03:18.540Z,24.00
2018-04-25T20:05:46.025Z,24.00
2018-04-25T20:08:14.293Z,23.90
2018-04-25T20:10:41.805Z,23.80
2018-04-25T20:13:09.275Z,23.80
2018-04-25T20:15:36.899Z,23.80
2018-04-25T20:18:05.199Z,23.70
2018-04-25T20:20:32.719Z,23.60
2018-04-25T20:23:00.971Z,23.70
2018-04-25T20:25:28.550Z,23.70
2018-04-25T20:27:56.785Z,23.70
2018-04-25T20:30:24.406Z,23.70
2018-04-25T20:32:52.690Z,23.70
2018-04-25T20:35:20.162Z,23.60
2018-04-25T20:37:47.667Z,23.70
2018-04-25T20:40:15.263Z,23.70
2018-04-25T20:42:42.754Z,23.70
2018-04-25T20:45:10.235Z,23.60
2018-04-25T20:47:37.744Z,23.60
2018-04-25T20:50:05.227Z,23.60
2018-04-25T20:52:32.730Z,23.60
2018-04-25T20:55:01.051Z,23.50
2018-04-25T20:57:28.562Z,23.50
2018-04-25T20:59:56.067Z,23.50
2018-04-25T21:02:23.594Z,23.50
2018-04-25T21:04:51.081Z,23.40
2018-04-25T21:07:18.632Z,23.30
2018-04-25T21:09:46.145Z,23.30
2018-04-25T21:12:13.615Z,23.30
2018-04-25T21:14:41.413Z,23.20
2018-04-25T21:17:08.942Z,23.20
2018-04-25T21:19:37.213Z,23.20
2018-04-25T21:22:05.487Z,23.20
2018-04-25T21:24:32.995Z,23.20
2018-04-25T21:27:00.539Z,23.10
2018-04-25T21:29:28.025Z,23.00
2018-04-25T21:31:55.517Z,22.80
2018-04-25T21:34:23.789Z,22.90
2018-04-25T21:36:51.287Z,22.90
2018-04-25T21:39:19.522Z,22.80
2018-04-25T21:41:47.044Z,22.90
2018-04-25T21:44:14.569Z,22.80
2018-04-25T21:46:42.111Z,22.80
2018-04-25T21:49:10.361Z,22.90
2018-04-25T21:51:38.775Z,23.00
2018-04-25T21:54:07.003Z,23.00
2018-04-25T21:56:34.523Z,23.00
2018-04-25T21:59:02.041Z,22.90
2018-04-25T22:01:29.686Z,22.90
2018-04-25T22:03:57.299Z,22.80
2018-04-25T22:06:24.785Z,22.80
2018-04-25T22:08:52.442Z,22.80
2018-04-25T22:11:19.918Z,22.80
2018-04-25T22:13:47.410Z,22.70
2018-04-25T22:16:14.924Z,22.70
2018-04-25T22:18:42.430Z,22.50
2018-04-25T22:21:10.751Z,22.50
2018-04-25T22:23:38.226Z,22.40
2018-04-25T22:26:05.750Z,22.50
2018-04-25T22:28:33.239Z,22.40
2018-04-25T22:31:00.731Z,22.30
2018-04-25T22:33:28.224Z,22.30
2018-04-25T22:35:55.697Z,22.50
2018-04-25T22:38:23.304Z,22.50
2018-04-25T22:40:50.846Z,22.50
2018-04-25T22:43:18.372Z,22.60
2018-04-25T22:45:45.869Z,22.70
2018-04-25T22:48:13.979Z,22.70
2018-04-25T22:50:42.254Z,22.70
2018-04-25T22:53:10.486Z,22.60
2018-04-25T22:55:38.005Z,22.60
2018-04-25T22:58:05.525Z,22.40
2018-04-25T23:00:33.018Z,22.30
2018-04-25T23:03:00.507Z,22.20
2018-04-25T23:05:28.008Z,22.00
2018-04-25T23:07:56.309Z,21.80
2018-04-25T23:10:23.842Z,21.80
2018-04-25T23:12:52.110Z,21.50
2018-04-25T23:15:19.628Z,21.50
2018-04-25T23:17:47.104Z,21.50
2018-04-25T23:20:14.683Z,21.50
2018-04-25T23:22:42.154Z,21.40
2018-04-25T23:25:10.419Z,21.60
2018-04-25T23:27:38.002Z,21.60
2018-04-25T23:30:06.324Z,21.50
2018-04-25T23:32:33.807Z,21.50
2018-04-25T23:35:01.314Z,21.50
2018-04-25T23:37:28.786Z,21.50
2018-04-25T23:39:56.295Z,21.50
2018-04-25T23:42:24.542Z,21.40
2018-04-25T23:44:52.024Z,21.40
2018-04-25T23:47:19.526Z,21.50
2018-04-25T23:49:46.996Z,21.50
2018-04-25T23:52:14.547Z,21.40
2018-04-25T23:54:42.058Z,21.40
2018-04-25T23:57:10.348Z,21.30
2018-04-25T23:59:38.612Z,21.40
